Time;durP1;ratioP1;P1;durP2;ratioP2;P2;SDS_P1;SDS_P2;PMS_P1;PMS_P2;Temp;Humidity;BMP_temperature;BMP_pressure;BME280_temperature;BME280_humidity;BME280_pressure;Samples;Min_cycle;Max_cycle;Signal;HPM_P1;HPM_P2
2021/01/18 00:01:35;;;;;;;19.92;4.95;;;;;;;8.68;62.95;102308.09;4980794;28;108257;-69
2021/01/18 00:04:02;;;;;;;24.70;5.00;;;;;;;8.70;63.07;102306.31;4975681;28;124613;-70
2021/01/18 00:06:29;;;;;;;25.17;4.80;;;;;;;8.71;63.10;102302.75;4977014;28;123958;-70
2021/01/18 00:08:56;;;;;;;15.65;4.45;;;;;;;8.72;62.74;102309.78;4976342;28;109576;-69
2021/01/18 00:11:23;;;;;;;24.02;4.90;;;;;;;8.74;62.84;102308.00;4976543;28;109239;-70
2021/01/18 00:13:51;;;;;;;21.90;4.97;;;;;;;8.73;62.91;102295.66;4994587;28;123433;-68
2021/01/18 00:16:20;;;;;;;21.92;4.75;;;;;;;8.73;63.07;102290.38;4997800;28;123565;-70
2021/01/18 00:18:48;;;;;;;17.98;4.63;;;;;;;8.73;62.60;102294.81;4981129;28;110106;-70
2021/01/18 00:21:14;;;;;;;18.50;4.60;;;;;;;8.71;62.55;102292.19;4996219;28;108166;-70
2021/01/18 00:23:42;;;;;;;20.85;5.13;;;;;;;8.71;62.57;102292.19;4981093;28;123973;-70
2021/01/18 00:26:09;;;;;;;21.60;5.30;;;;;;;8.70;62.56;102295.72;4976624;28;121840;-70
2021/01/18 00:28:40;;;;;;;17.80;4.88;;;;;;;8.69;62.40;102293.97;4991842;28;110653;-70
2021/01/18 00:31:08;;;;;;;13.90;4.97;;;;;;;8.69;62.60;102293.09;4992378;28;110146;-70
2021/01/18 00:33:36;;;;;;;17.75;4.55;;;;;;;8.67;62.58;102298.41;4982623;28;124048;-70
2021/01/18 00:36:04;;;;;;;19.08;5.05;;;;;;;8.68;62.66;102301.91;4980123;28;123801;-69
2021/01/18 00:38:33;;;;;;;17.90;4.78;;;;;;;8.69;62.48;102298.38;4982881;28;109771;-69
2021/01/18 00:41:01;;;;;;;18.05;4.97;;;;;;;8.67;62.58;102295.75;4993168;28;108778;-70
2021/01/18 00:43:31;;;;;;;23.92;4.85;;;;;;;8.68;62.64;102297.53;4987250;28;123652;-71
2021/01/18 00:45:58;;;;;;;26.33;4.97;;;;;;;8.68;62.66;102296.63;4977001;28;124302;-69
2021/01/18 00:48:25;;;;;;;22.75;4.43;;;;;;;8.66;62.36;102294.00;4978246;28;109292;-70
2021/01/18 00:50:52;;;;;;;22.33;4.72;;;;;;;8.65;62.32;102296.69;4959376;28;110386;-70
2021/01/18 00:53:19;;;;;;;19.80;4.68;;;;;;;8.62;62.53;102292.31;4974100;28;122285;-70
2021/01/18 00:55:46;;;;;;;19.48;5.28;;;;;;;8.60;62.33;102283.53;4974918;28;124027;-70
2021/01/18 00:58:32;;;;;;;18.88;5.00;;;;;;;8.59;62.53;102287.09;4976291;28;108546;-70
2021/01/18 01:01:16;;;;;;;21.42;4.60;;;;;;;8.58;62.42;102282.69;4997383;28;108286;-70
2021/01/18 01:03:44;;;;;;;14.60;4.18;;;;;;;8.57;62.66;102283.59;4974230;28;124761;-69
2021/01/18 01:06:11;;;;;;;15.35;4.63;;;;;;;8.55;62.47;102285.34;4979490;28;123357;-70
2021/01/18 01:08:39;;;;;;;16.95;4.72;;;;;;;8.55;62.41;102283.59;4991521;28;107821;-71
2021/01/18 01:11:05;;;;;;;16.52;4.30;;;;;;;8.55;62.47;102277.44;4975387;28;108788;-70
2021/01/18 01:13:32;;;;;;;21.83;5.05;;;;;;;8.54;62.25;102273.06;4978685;28;124061;-70
2021/01/18 01:15:59;;;;;;;21.52;4.90;;;;;;;8.54;62.48;102267.78;4960629;28;122922;-69
2021/01/18 01:18:26;;;;;;;19.55;4.85;;;;;;;8.53;62.23;102263.38;4980102;28;110533;-70
2021/01/18 01:20:52;;;;;;;13.35;4.63;;;;;;;8.51;62.38;102262.53;4982059;28;109777;-70
2021/01/18 01:23:19;;;;;;;18.33;4.95;;;;;;;8.51;62.38;102262.53;4989498;28;123597;-69
2021/01/18 01:25:47;;;;;;;16.23;4.68;;;;;;;8.50;62.20;102263.44;4974831;28;126118;-70
2021/01/18 01:28:14;;;;;;;12.57;4.65;;;;;;;8.50;62.53;102260.78;4975067;28;109444;-70
2021/01/18 01:30:40;;;;;;;13.82;4.32;;;;;;;8.50;62.25;102255.50;4974149;28;108671;-69
2021/01/18 01:33:07;;;;;;;20.08;4.80;;;;;;;8.49;62.43;102253.75;4977016;28;123302;-70
2021/01/18 01:35:34;;;;;;;19.65;5.00;;;;;;;8.50;62.02;102247.59;4981119;28;122770;-70
2021/01/18 01:38:00;;;;;;;17.20;4.90;;;;;;;8.50;62.29;102244.97;4978712;28;109704;-70
2021/01/18 01:40:27;;;;;;;19.45;5.03;;;;;;;8.49;62.42;102253.75;4978520;28;109216;-69
2021/01/18 01:42:54;;;;;;;20.33;5.20;;;;;;;8.48;62.02;102252.03;4977463;28;124008;-70
2021/01/18 01:45:20;;;;;;;16.02;4.60;;;;;;;8.46;62.28;102256.47;4975409;28;125432;-69
2021/01/18 01:47:49;;;;;;;14.50;5.18;;;;;;;8.45;62.16;102252.06;4976259;28;110959;-69
2021/01/18 01:50:28;;;;;;;20.50;5.35;;;;;;;8.43;62.02;102253.84;4992234;28;108272;-70
2021/01/18 01:52:57;;;;;;;16.13;5.13;;;;;;;8.41;62.17;102250.31;4975832;28;124035;-70
2021/01/18 01:55:28;;;;;;;19.52;5.07;;;;;;;8.41;62.56;102255.59;4978335;28;123261;-70
2021/01/18 01:57:56;;;;;;;19.13;5.22;;;;;;;8.41;62.27;102255.59;4991716;28;108420;-70
2021/01/18 02:00:23;;;;;;;16.00;5.00;;;;;;;8.38;62.29;102252.13;4977564;28;108960;-70
2021/01/18 02:02:51;;;;;;;20.00;5.68;;;;;;;8.38;62.15;102249.47;4975130;28;124117;-70
2021/01/18 02:05:18;;;;;;;16.38;5.75;;;;;;;8.37;62.30;102239.78;4987246;28;122885;-70
2021/01/18 02:07:45;;;;;;;15.30;4.85;;;;;;;8.36;62.11;102238.06;4976966;28;110282;-69
2021/01/18 02:10:12;;;;;;;23.92;5.68;;;;;;;8.35;62.13;102246.88;4979918;28;109928;-69
2021/01/18 02:12:39;;;;;;;19.65;6.03;;;;;;;8.34;62.54;102245.13;4980287;28;123809;-69
2021/01/18 02:15:11;;;;;;;15.57;5.40;;;;;;;8.33;62.36;102248.66;4977256;28;122910;-69
2021/01/18 02:17:53;;;;;;;22.92;6.07;;;;;;;8.33;62.45;102247.78;4977059;28;109041;-70
2021/01/18 02:20:42;;;;;;;14.80;5.90;;;;;;;8.33;62.51;102238.09;5027010;22;109333;-68
2021/01/18 02:23:26;;;;;;;22.88;6.70;;;;;;;8.30;62.44;102240.75;4986558;28;123510;-70
2021/01/18 02:26:02;;;;;;;20.83;6.25;;;;;;;8.29;62.24;102246.94;5006234;28;124110;-70
2021/01/18 02:29:02;;;;;;;16.35;6.53;;;;;;;8.28;62.10;102247.81;4994692;28;109151;-70
2021/01/18 02:31:47;;;;;;;23.42;6.97;;;;;;;8.29;62.30;102246.94;4996951;28;107520;-70
2021/01/18 02:34:38;;;;;;;18.27;6.45;;;;;;;8.28;62.54;102255.75;4992928;28;124022;-70
2021/01/18 02:37:32;;;;;;;15.27;6.70;;;;;;;8.27;62.26;102248.75;4994983;28;123052;-70
2021/01/18 02:40:07;;;;;;;15.30;7.28;;;;;;;8.29;62.34;102257.50;4993758;28;108069;-70
2021/01/18 02:42:50;;;;;;;18.85;7.45;;;;;;;8.26;62.68;102252.25;4995447;28;109070;-70
2021/01/18 02:45:18;;;;;;;21.40;7.43;;;;;;;8.27;62.27;102264.56;4999139;28;124059;-70
2021/01/18 02:47:46;;;;;;;17.73;7.32;;;;;;;8.27;62.45;102259.28;4994065;28;123482;-70
2021/01/18 02:50:13;;;;;;;20.50;8.68;;;;;;;8.29;62.39;102268.06;4997048;28;109031;-70
2021/01/18 02:52:43;;;;;;;19.63;8.82;;;;;;;8.28;62.58;102261.03;4999005;28;109217;-69
2021/01/18 02:55:16;;;;;;;19.10;8.48;;;;;;;8.29;62.22;102254.00;5005025;28;124711;-71
2021/01/18 02:57:44;;;;;;;24.20;8.48;;;;;;;8.27;62.37;102254.03;4994067;28;123866;-70
2021/01/18 03:00:16;;;;;;;19.98;8.20;;;;;;;8.28;62.19;102257.53;4994774;28;110320;-70
2021/01/18 03:02:58;;;;;;;21.17;9.27;;;;;;;8.27;62.32;102259.28;5010656;28;109548;-70
2021/01/18 03:05:34;;;;;;;18.13;9.27;;;;;;;8.27;62.24;102248.75;4995730;28;124104;-70
2021/01/18 03:08:16;;;;;;;23.50;9.15;;;;;;;8.26;62.16;102259.31;4993767;28;124441;-70
2021/01/18 03:11:05;;;;;;;29.05;9.35;;;;;;;8.23;62.16;102257.59;4992025;28;109561;-70
2021/01/18 03:13:57;;;;;;;24.17;10.00;;;;;;;8.21;62.41;102258.50;4994953;28;109026;-69
2021/01/18 03:16:27;;;;;;;23.92;9.55;;;;;;;8.19;62.21;102258.50;4991209;28;121913;-69
2021/01/18 03:18:58;;;;;;;20.60;9.05;;;;;;;8.17;62.41;102261.19;5002966;28;123898;-68
2021/01/18 03:21:25;;;;;;;23.55;9.85;;;;;;;8.19;62.29;102258.50;4996637;28;108657;-69
2021/01/18 03:23:52;;;;;;;21.98;9.93;;;;;;;8.18;62.29;102262.03;4998167;28;109217;-69
2021/01/18 03:26:22;;;;;;;29.13;11.02;;;;;;;8.16;62.21;102266.47;4996474;28;124189;-70
2021/01/18 03:28:49;;;;;;;23.77;10.75;;;;;;;8.13;62.22;102258.59;5000681;28;124942;-69
2021/01/18 03:31:18;;;;;;;22.33;10.07;;;;;;;8.13;62.29;102261.22;4998639;28;108885;-69
2021/01/18 03:33:45;;;;;;;22.30;10.13;;;;;;;8.09;62.28;102251.59;4994453;28;110498;-69
2021/01/18 03:36:12;;;;;;;24.45;10.55;;;;;;;8.06;62.05;102248.97;4996422;28;124228;-69
2021/01/18 03:38:38;;;;;;;32.70;10.43;;;;;;;8.05;62.34;102252.53;4995180;28;123997;-69
2021/01/18 03:41:05;;;;;;;32.00;11.60;;;;;;;8.03;62.20;102244.63;4996605;28;108578;-69
2021/01/18 03:43:32;;;;;;;29.17;11.02;;;;;;;8.01;62.07;102248.19;4998041;28;109996;-70
2021/01/18 03:45:58;;;;;;;22.65;10.73;;;;;;;7.98;62.27;102247.31;4996952;28;124577;-69
2021/01/18 03:48:25;;;;;;;19.48;11.18;;;;;;;7.96;62.29;102249.09;5002847;28;123393;-69
2021/01/18 03:50:52;;;;;;;25.65;11.05;;;;;;;7.97;62.61;102252.63;4997142;28;109295;-69
2021/01/18 03:53:19;;;;;;;23.00;11.25;;;;;;;7.95;62.54;102250.00;4998278;28;110073;-70
2021/01/18 03:55:47;;;;;;;30.48;11.43;;;;;;;7.95;62.66;102242.09;5003345;28;123864;-69
2021/01/18 03:58:13;;;;;;;24.67;11.90;;;;;;;7.93;62.56;102249.16;5015253;28;122795;-69
2021/01/18 04:00:40;;;;;;;29.10;11.13;;;;;;;7.93;62.28;102246.50;4999567;28;109432;-69
2021/01/18 04:03:07;;;;;;;35.90;11.27;;;;;;;7.91;62.36;102237.75;4999235;28;109972;-70
2021/01/18 04:05:44;;;;;;;30.95;12.05;;;;;;;7.90;62.72;102243.91;5002804;28;123831;-70
2021/01/18 04:08:11;;;;;;;28.38;11.27;;;;;;;7.90;62.24;102246.53;4981716;28;123143;-69
2021/01/18 04:10:37;;;;;;;27.52;11.60;;;;;;;7.90;62.50;102246.53;4980724;28;109335;-70
2021/01/18 04:13:04;;;;;;;27.33;12.15;;;;;;;7.89;62.88;102243.91;4975116;28;110743;-69
2021/01/18 04:15:30;;;;;;;23.58;11.52;;;;;;;7.89;62.40;102236.00;4978915;28;124206;-70
2021/01/18 04:17:57;;;;;;;25.60;11.23;;;;;;;7.90;62.77;102233.34;4979690;28;123823;-70
2021/01/18 04:20:24;;;;;;;27.02;12.60;;;;;;;7.91;62.47;102240.38;4978252;28;109973;-70
2021/01/18 04:22:52;;;;;;;35.65;12.32;;;;;;;7.92;62.39;102231.56;4981734;28;110035;-69
2021/01/18 04:25:22;;;;;;;34.58;12.55;;;;;;;7.91;62.73;102229.81;4975170;28;122962;-69
2021/01/18 04:27:51;;;;;;;26.65;11.55;;;;;;;7.91;62.49;102229.81;4980797;28;124246;-69
2021/01/18 04:30:20;;;;;;;32.97;12.50;;;;;;;7.90;62.61;102222.78;4976183;28;109267;-69
2021/01/18 04:33:09;;;;;;;25.80;11.80;;;;;;;7.88;62.65;102224.56;4978129;28;110488;-69
2021/01/18 04:35:38;;;;;;;27.33;12.35;;;;;;;7.87;62.64;102220.19;4978045;28;124000;-69
2021/01/18 04:38:05;;;;;;;26.20;12.48;;;;;;;7.85;62.54;102219.31;4973636;28;123128;-69
2021/01/18 04:40:33;;;;;;;29.25;12.73;;;;;;;7.82;62.72;102219.38;4974005;28;110345;-69
2021/01/18 04:43:00;;;;;;;27.90;12.73;;;;;;;7.79;62.74;102214.13;4976583;28;110216;-69
2021/01/18 04:45:28;;;;;;;30.92;12.93;;;;;;;7.79;62.89;102214.13;4975978;28;124192;-69
2021/01/18 04:47:57;;;;;;;33.30;12.40;;;;;;;7.79;62.62;102219.41;4976284;28;123813;-69
2021/01/18 04:50:26;;;;;;;27.65;12.00;;;;;;;7.77;62.52;102215.91;4979188;28;108827;-69
2021/01/18 04:52:55;;;;;;;25.67;11.88;;;;;;;7.75;62.61;102218.56;4970532;28;109466;-68
2021/01/18 04:55:33;;;;;;;27.38;12.30;;;;;;;7.73;62.87;102208.94;4976526;28;123015;-68
2021/01/18 04:58:10;;;;;;;29.63;12.60;;;;;;;7.72;63.05;102207.16;4973150;28;124244;-71
2021/01/18 05:00:41;;;;;;;29.48;12.43;;;;;;;7.70;62.56;102211.59;4978693;28;109413;-69
2021/01/18 05:03:09;;;;;;;33.60;13.30;;;;;;;7.70;62.51;102214.22;4975928;28;109526;-68
2021/01/18 05:05:49;;;;;;;29.25;12.45;;;;;;;7.68;62.86;102216.00;4978071;28;124256;-68
2021/01/18 05:08:55;;;;;;;34.10;12.50;;;;;;;7.65;62.77;102210.75;4975880;28;124477;-68
2021/01/18 05:11:21;;;;;;;31.20;12.48;;;;;;;7.64;62.91;102206.41;4960410;28;109105;-68
2021/01/18 05:13:48;;;;;;;36.90;13.15;;;;;;;7.64;63.09;102198.47;4972841;28;110576;-68
2021/01/18 05:16:15;;;;;;;31.88;12.40;;;;;;;7.63;62.76;102202.00;4977114;28;123763;-68
2021/01/18 05:18:42;;;;;;;28.25;13.02;;;;;;;7.62;62.83;102200.25;4979447;28;123661;-69
2021/01/18 05:21:10;;;;;;;31.55;13.20;;;;;;;7.60;62.81;102203.78;4979127;28;109336;-68
2021/01/18 05:23:42;;;;;;;35.75;12.80;;;;;;;7.60;62.96;102198.50;4959789;28;109937;-68
2021/01/18 05:26:26;;;;;;;31.92;13.50;;;;;;;7.59;63.01;102196.78;4972270;28;123067;-68
2021/01/18 05:28:56;;;;;;;39.08;14.30;;;;;;;7.58;62.80;102200.28;4977870;28;124240;-68
2021/01/18 05:31:25;;;;;;;35.10;13.77;;;;;;;7.57;63.16;102198.56;4974746;28;111552;-68
2021/01/18 05:34:06;;;;;;;33.22;13.27;;;;;;;7.55;63.34;102195.06;4978048;28;109733;-68
2021/01/18 05:36:39;;;;;;;38.38;12.95;;;;;;;7.55;63.25;102200.34;4978575;28;124302;-68
2021/01/18 05:39:21;;;;;;;38.03;13.13;;;;;;;7.53;63.18;102202.09;4974308;28;124746;-68
2021/01/18 05:41:53;;;;;;;35.65;13.00;;;;;;;7.53;63.30;102191.53;4980165;28;108809;-68
2021/01/18 05:44:29;;;;;;;38.33;13.93;;;;;;;7.52;63.16;102200.38;4973824;28;109347;-69
2021/01/18 05:47:02;;;;;;;31.63;13.65;;;;;;;7.49;63.29;102203.00;4974586;28;123275;-69
2021/01/18 05:49:39;;;;;;;44.58;13.77;;;;;;;7.48;63.37;102206.56;4976337;28;122857;-68
2021/01/18 05:52:21;;;;;;;34.63;14.52;;;;;;;7.48;63.04;102209.19;4975213;28;109490;-68
2021/01/18 05:54:48;;;;;;;33.65;13.70;;;;;;;7.49;62.92;102208.28;4980453;28;110434;-68
2021/01/18 05:57:15;;;;;;;41.75;14.38;;;;;;;7.50;63.21;102202.16;4976478;28;124456;-68
2021/01/18 05:59:42;;;;;;;35.45;13.95;;;;;;;7.50;63.24;102196.00;4975460;28;124446;-70
2021/01/18 06:02:09;;;;;;;31.77;13.90;;;;;;;7.49;63.26;102205.66;4981526;28;109320;-69
2021/01/18 06:04:36;;;;;;;33.30;13.00;;;;;;;7.48;63.25;102198.66;4976406;28;109716;-69
2021/01/18 06:07:04;;;;;;;39.47;13.93;;;;;;;7.47;63.24;102202.16;4976194;28;124207;-70
2021/01/18 06:09:43;;;;;;;31.63;13.95;;;;;;;7.45;62.96;102211.84;4958253;28;123805;-69
2021/01/18 06:12:20;;;;;;;29.85;13.65;;;;;;;7.43;63.38;102216.25;4976777;28;109386;-69
2021/01/18 06:15:10;;;;;;;32.63;13.55;;;;;;;7.39;63.12;102209.28;4974829;28;109311;-70
2021/01/18 06:17:41;;;;;;;33.95;13.68;;;;;;;7.40;63.53;102211.00;4975906;28;124306;-69
2021/01/18 06:20:08;;;;;;;41.00;14.27;;;;;;;7.37;63.35;102211.06;4977125;28;124193;-69
2021/01/18 06:22:35;;;;;;;36.67;13.52;;;;;;;7.37;63.22;102208.44;4980299;28;110171;-69
2021/01/18 06:25:13;;;;;;;32.25;13.90;;;;;;;7.35;63.21;102207.56;4979758;28;110196;-69
2021/01/18 06:27:40;;;;;;;34.67;14.82;;;;;;;7.36;63.04;102204.03;4960105;28;124447;-69
2021/01/18 06:30:20;;;;;;;44.05;14.30;;;;;;;7.34;63.34;102200.53;4974593;28;123219;-70
2021/01/18 06:32:52;;;;;;;41.28;14.10;;;;;;;7.35;63.42;102202.31;4975201;28;109384;-72
2021/01/18 06:35:26;;;;;;;35.97;14.15;;;;;;;7.35;63.32;102207.56;4974091;28;109036;-70
2021/01/18 06:38:06;;;;;;;35.30;15.27;;;;;;;7.33;63.59;102209.34;4955850;28;124652;-69
2021/01/18 06:40:38;;;;;;;35.45;14.20;;;;;;;7.32;63.57;102208.44;4971132;28;124136;-70
2021/01/18 06:43:07;;;;;;;40.72;15.25;;;;;;;7.33;63.44;102209.34;4974831;28;109444;-70
2021/01/18 06:45:38;;;;;;;37.33;13.38;;;;;;;7.33;63.57;102209.34;4975012;28;110180;-70
2021/01/18 06:48:07;;;;;;;33.05;13.88;;;;;;;7.31;63.48;102203.19;4979174;28;124156;-70
2021/01/18 06:50:40;;;;;;;39.83;15.30;;;;;;;7.30;63.47;102206.72;4973456;28;123566;-70
2021/01/18 06:53:27;;;;;;;44.47;16.02;;;;;;;7.27;63.22;102204.13;4977448;28;109642;-70
2021/01/18 06:56:25;;;;;;;34.17;14.63;;;;;;;7.25;63.56;102200.63;4972881;28;109666;-70
2021/01/18 06:59:34;;;;;;;33.15;14.63;;;;;;;7.24;63.32;102204.16;4977846;28;124744;-70
2021/01/18 07:02:26;;;;;;;35.28;14.23;;;;;;;7.22;63.50;102194.50;4988026;28;124570;-70
2021/01/18 07:05:09;;;;;;;38.80;14.65;;;;;;;7.22;63.58;102197.13;4943473;28;108241;-69
2021/01/18 07:07:38;;;;;;;32.53;14.13;;;;;;;7.24;63.53;102193.63;4980066;28;110571;-70
2021/01/18 07:10:09;;;;;;;37.05;13.70;;;;;;;7.24;63.46;102201.53;4978609;28;123890;-70
2021/01/18 07:12:37;;;;;;;29.23;13.80;;;;;;;7.25;63.64;102200.63;4981853;28;123928;-70
2021/01/18 07:15:07;;;;;;;35.85;13.80;;;;;;;7.24;63.60;102198.91;4974536;28;109466;-70
2021/01/18 07:17:42;;;;;;;32.53;13.73;;;;;;;7.22;63.58;102197.13;4981534;28;110800;-70
2021/01/18 07:20:19;;;;;;;32.75;14.10;;;;;;;7.24;63.58;102198.91;4980234;28;124070;-70
2021/01/18 07:23:08;;;;;;;31.70;14.35;;;;;;;7.25;63.55;102184.81;4978543;28;124189;-70
2021/01/18 07:25:36;;;;;;;33.10;14.05;;;;;;;7.25;63.68;102192.72;4977414;28;108342;-70
2021/01/18 07:28:03;;;;;;;41.38;14.27;;;;;;;7.25;63.87;102195.34;4978279;28;109956;-70
2021/01/18 07:30:34;;;;;;;39.60;14.50;;;;;;;7.25;63.71;102190.09;4977600;28;124746;-70
2021/01/18 07:33:07;;;;;;;32.22;14.75;;;;;;;7.25;63.66;102190.09;4976954;28;124759;-70
2021/01/18 07:35:35;;;;;;;41.28;14.88;;;;;;;7.26;63.69;102191.84;4959350;28;108387;-70
2021/01/18 07:38:17;;;;;;;40.70;14.35;;;;;;;7.27;63.81;102193.56;4976019;28;110391;-70
2021/01/18 07:41:12;;;;;;;36.85;15.35;;;;;;;7.25;63.62;102185.69;4979156;28;124031;-70
2021/01/18 07:43:43;;;;;;;40.63;15.13;;;;;;;7.26;63.63;102186.56;4960694;28;122967;-70
2021/01/18 07:46:28;;;;;;;44.13;15.30;;;;;;;7.29;63.80;102197.06;4980386;28;107423;-70
2021/01/18 07:48:59;;;;;;;34.53;14.60;;;;;;;7.32;63.96;102202.31;4983360;28;110322;-70
2021/01/18 07:51:32;;;;;;;41.15;15.65;;;;;;;7.34;63.89;102200.53;4981362;28;125121;-70
2021/01/18 07:53:59;;;;;;;37.83;15.20;;;;;;;7.36;63.83;102199.63;4976521;28;122589;-70
2021/01/18 07:56:33;;;;;;;40.15;16.30;;;;;;;7.38;63.68;102204.88;4977368;28;115053;-70
2021/01/18 07:59:05;;;;;;;35.17;16.20;;;;;;;7.40;63.78;102211.00;4982046;28;114343;-71
2021/01/18 08:01:33;;;;;;;35.00;15.48;;;;;;;7.43;63.87;102200.44;4968461;28;123974;-70
2021/01/18 08:04:20;;;;;;;35.40;15.25;;;;;;;7.44;63.88;102207.47;4978336;28;123342;-71
2021/01/18 08:07:02;;;;;;;;;;;;;;;7.48;63.91;102203.94;4974802;28;115203;-71
2021/01/18 08:09:29;;;;;;;29.40;14.80;;;;;;;7.52;63.95;102213.53;4966624;28;114136;-70
2021/01/18 08:12:33;;;;;;;36.47;16.15;;;;;;;7.52;63.74;102205.63;4972924;28;124203;-70
2021/01/18 08:15:08;;;;;;;37.55;15.52;;;;;;;7.52;63.85;102213.53;4982954;28;124041;-69
2021/01/18 08:17:36;;;;;;;35.35;16.60;;;;;;;7.55;64.03;102205.63;4982910;28;114612;-70
2021/01/18 08:20:10;;;;;;;44.97;16.85;;;;;;;7.57;64.06;102214.38;4979186;28;113798;-70
2021/01/18 08:22:37;;;;;;;38.65;17.13;;;;;;;7.60;64.09;102211.69;4976059;28;123970;-70
2021/01/18 08:25:05;;;;;;;36.03;16.60;;;;;;;7.64;64.24;102214.31;4970850;28;124675;-69
2021/01/18 08:27:47;;;;;;;39.85;17.15;;;;;;;7.66;63.92;102218.66;4986654;28;114890;-69
2021/01/18 08:30:15;;;;;;;38.65;17.23;;;;;;;7.71;64.30;102221.25;4970522;28;113996;-70
2021/01/18 08:32:52;;;;;;;39.17;17.95;;;;;;;7.73;63.82;102228.25;4974178;28;123141;-70
2021/01/18 08:35:19;;;;;;;42.92;17.45;;;;;;;7.78;63.99;102217.66;4989568;28;125768;-69
2021/01/18 08:37:57;;;;;;;37.00;16.27;;;;;;;7.82;63.84;102224.66;4990799;28;114495;-70
2021/01/18 08:40:38;;;;;;;38.63;16.10;;;;;;;7.83;64.07;102221.09;4978285;28;113910;-70
2021/01/18 08:43:05;;;;;;;37.50;16.10;;;;;;;7.86;63.75;102221.09;4962113;28;123312;-69
2021/01/18 08:45:38;;;;;;;29.42;15.18;;;;;;;7.87;63.80;102212.25;4988105;28;123822;-70
2021/01/18 08:48:07;;;;;;;31.55;15.15;;;;;;;7.90;64.17;102214.88;4972306;28;113626;-70
2021/01/18 08:50:43;;;;;;;36.50;15.15;;;;;;;7.92;63.86;102226.28;4985005;28;113425;-70
2021/01/18 08:53:29;;;;;;;29.70;15.85;;;;;;;7.95;63.97;102220.97;4989138;28;124434;-70
2021/01/18 08:56:00;;;;;;;35.47;15.10;;;;;;;7.96;63.83;102222.72;4969498;28;123994;-70
2021/01/18 08:58:34;;;;;;;33.38;15.10;;;;;;;7.99;63.74;102217.41;4980084;28;115333;-69
2021/01/18 09:01:03;;;;;;;35.50;15.52;;;;;;;8.02;63.96;102226.19;4987357;28;115569;-70
2021/01/18 09:03:30;;;;;;;30.75;15.75;;;;;;;8.03;63.71;102223.53;4972436;28;124536;-69
2021/01/18 09:05:58;;;;;;;35.15;15.25;;;;;;;8.06;63.79;102217.31;4954726;28;123184;-70
2021/01/18 09:08:27;;;;;;;31.48;14.95;;;;;;;8.08;63.79;102215.53;4974026;28;114446;-69
2021/01/18 09:10:56;;;;;;;28.58;15.02;;;;;;;8.11;63.89;102220.78;4992097;28;113893;-70
2021/01/18 09:13:28;;;;;;;33.90;15.68;;;;;;;8.14;63.70;102216.34;4973615;28;124038;-70
2021/01/18 09:15:58;;;;;;;30.73;15.15;;;;;;;8.16;63.79;102221.63;4980471;28;123917;-69
2021/01/18 09:18:26;;;;;;;27.67;14.77;;;;;;;8.19;63.51;102218.91;4990448;28;114284;-69
2021/01/18 09:20:58;;;;;;;31.20;15.85;;;;;;;8.20;63.90;102210.13;4973915;28;113391;-70
2021/01/18 09:23:27;;;;;;;27.67;14.27;;;;;;;8.23;63.51;102215.38;4972210;28;123984;-70
2021/01/18 09:26:01;;;;;;;34.08;16.02;;;;;;;8.24;63.79;102211.81;4973294;28;123808;-70
2021/01/18 09:28:28;;;;;;;34.47;15.05;;;;;;;8.26;63.76;102204.75;4993058;28;113736;-70
2021/01/18 09:30:55;;;;;;;32.13;15.40;;;;;;;8.29;63.76;102212.63;4973544;28;113249;-70
2021/01/18 09:33:28;;;;;;;27.98;15.15;;;;;;;8.31;63.67;102208.22;4958087;28;123855;-70
2021/01/18 09:35:55;;;;;;;37.85;16.40;;;;;;;8.31;63.56;102208.22;4989546;28;124237;-70
2021/01/18 09:38:22;;;;;;;34.08;16.20;;;;;;;8.32;63.82;102209.94;4985530;28;114496;-69
2021/01/18 09:40:49;;;;;;;35.80;16.23;;;;;;;8.35;63.22;102187.94;4970953;28;113638;-68
2021/01/18 09:43:19;;;;;;;29.52;16.52;;;;;;;8.36;63.24;102195.81;4988234;28;123474;-68
2021/01/18 09:45:56;;;;;;;31.73;16.92;;;;;;;8.37;63.20;102201.97;4969912;28;123109;-68
2021/01/18 09:48:25;;;;;;;35.88;16.42;;;;;;;8.39;62.92;102201.03;4989509;28;115661;-70
2021/01/18 09:51:03;;;;;;;30.65;15.93;;;;;;;8.39;63.14;102195.75;4971165;28;114927;-70
2021/01/18 09:53:31;;;;;;;29.65;16.40;;;;;;;8.41;63.29;102208.94;4990629;28;123962;-70
2021/01/18 09:56:04;;;;;;;34.28;16.77;;;;;;;8.41;63.30;102198.38;4986995;28;124260;-70
2021/01/18 09:58:37;;;;;;;36.10;16.55;;;;;;;8.43;63.08;102195.75;4974263;28;113769;-71
2021/01/18 10:01:10;;;;;;;32.33;16.15;;;;;;;8.44;63.21;102194.84;4974320;28;114084;-71
2021/01/18 10:03:39;;;;;;;32.33;17.48;;;;;;;8.46;63.25;102196.59;4968936;28;123724;-71
2021/01/18 10:06:07;;;;;;;35.38;17.23;;;;;;;8.47;62.87;102197.47;4970103;28;125306;-72
2021/01/18 10:08:36;;;;;;;33.38;17.17;;;;;;;8.48;63.13;102193.94;4991350;28;114725;-72
2021/01/18 10:11:03;;;;;;;32.67;16.42;;;;;;;8.52;62.92;102185.06;4971213;28;114798;-72
2021/01/18 10:13:30;;;;;;;29.40;16.88;;;;;;;8.52;63.07;102182.44;4989660;28;124500;-70
2021/01/18 10:16:09;;;;;;;31.23;15.73;;;;;;;8.54;62.78;102172.72;4973853;28;124140;-70
2021/01/18 10:18:39;;;;;;;33.63;15.98;;;;;;;8.57;63.00;102177.97;4972877;28;113483;-73
2021/01/18 10:21:09;;;;;;;34.55;15.18;;;;;;;8.58;62.79;102179.69;4974437;28;114247;-71
2021/01/18 10:23:39;;;;;;;29.70;16.08;;;;;;;8.60;62.53;102183.19;4970758;28;124342;-72
2021/01/18 10:26:35;;;;;;;29.15;15.77;;;;;;;8.59;62.77;102170.88;4978775;28;122675;-72
2021/01/18 10:29:05;;;;;;;34.53;16.25;;;;;;;8.62;62.60;102165.53;4975884;28;114394;-70
2021/01/18 10:31:34;;;;;;;29.13;14.95;;;;;;;8.64;62.79;102163.75;4980546;28;114057;-71
2021/01/18 10:34:22;;;;;;;24.70;14.10;;;;;;;8.64;62.90;102163.75;4969423;28;123139;-73
2021/01/18 10:36:51;;;;;;;32.25;15.05;;;;;;;8.68;62.73;102148.72;4974166;28;123178;-73
2021/01/18 10:39:32;;;;;;;28.10;14.98;;;;;;;8.69;62.75;102146.06;4975919;28;114231;-72
2021/01/18 10:42:08;;;;;;;34.33;14.43;;;;;;;8.72;62.75;102135.47;4984214;28;115430;-72
2021/01/18 10:44:54;;;;;;;28.98;13.93;;;;;;;8.74;62.80;102136.31;4973921;28;124062;-73
2021/01/18 10:47:26;;;;;;;33.10;15.07;;;;;;;8.78;62.68;102129.19;4981593;28;123767;-72
2021/01/18 10:49:53;;;;;;;29.40;14.45;;;;;;;8.83;62.56;102131.75;4980624;22;114336;-69
2021/01/18 10:52:43;;;;;;;28.17;13.63;;;;;;;8.86;62.68;102137.00;4987842;28;113869;-70
2021/01/18 10:55:13;;;;;;;27.65;12.75;;;;;;;8.92;62.59;102131.59;4982372;28;123835;-70
2021/01/18 10:57:45;;;;;;;29.23;10.98;;;;;;;8.95;62.60;102131.56;4990439;28;124039;-70
2021/01/18 11:00:20;;;;;;;21.13;9.63;;;;;;;8.97;62.18;102129.75;4984756;28;114032;-71
2021/01/18 11:02:58;;;;;;;22.63;9.48;;;;;;;8.99;62.12;102133.25;4969983;28;113790;-70
2021/01/18 11:05:39;;;;;;;19.95;9.00;;;;;;;9.02;62.23;102132.31;4970621;28;124086;-70
2021/01/18 11:08:07;;;;;;;19.95;8.63;;;;;;;9.04;62.29;102134.03;4971003;28;123096;-69
2021/01/18 11:10:37;;;;;;;23.15;9.00;;;;;;;9.07;62.23;102135.75;4970069;28;114253;-69
2021/01/18 11:13:17;;;;;;;21.40;8.55;;;;;;;9.11;62.06;102132.13;4969355;28;114260;-70
2021/01/18 11:15:48;;;;;;;30.88;9.13;;;;;;;9.13;62.12;102131.19;4970662;28;124098;-69
2021/01/18 11:18:20;;;;;;;21.27;8.48;;;;;;;9.16;61.91;102125.88;4955897;28;123631;-69
2021/01/18 11:20:52;;;;;;;21.75;8.13;;;;;;;9.20;61.91;102123.19;4969880;28;114118;-70
2021/01/18 11:23:18;;;;;;;21.63;8.18;;;;;;;9.22;62.04;102113.44;4962400;28;113909;-71
2021/01/18 11:25:45;;;;;;;18.95;8.25;;;;;;;9.23;61.62;102113.44;4964290;28;124201;-69
2021/01/18 11:28:17;;;;;;;20.73;8.63;;;;;;;9.27;61.90;102111.59;4966134;28;122822;-70
2021/01/18 11:30:44;;;;;;;16.17;7.55;;;;;;;9.28;61.76;102108.03;4965799;28;114414;-70
2021/01/18 11:33:12;;;;;;;18.17;8.10;;;;;;;9.30;61.84;102101.81;4952433;28;114701;-69
2021/01/18 11:35:42;;;;;;;21.02;7.93;;;;;;;9.34;61.83;102100.88;4965978;28;123947;-70